Wappingers Falls, NY (12590)

5:43 PM EDT on August 29, 2016 (GMT -0400)
Thomas Compound | | Change Station

Elev 223 ft 41.59 °N, 73.89 °W | Updated 20 seconds ago

Clear
Clear
84.0 °F
Feels Like 84 °F
N
0.4
Wind Variable Wind from East
Gusts 2.5 mph

Today
High -- | Low -- °F
--% Chance of Precip.
Yesterday
High -- | Low -- °F
Precip. -- in
Pressure 30.06 in
Visibility 10.0 miles
Clouds Clear
Heat Index 84 °F
Dew Point 60 °F
Humidity 44%
Rainfall 0.00 in
Snow Depth Not available.
6:19 AM 7:32 PM
Waning Crescent, 7% visible
METAR KPOU 292053Z AUTO 35009G16KT 10SM CLR 30/13 A3007 RMK AO2 SLP180 T03000133 55006
Pressure 30.06 in
Visibility 10.0 miles
Clouds Clear
Heat Index 84 °F
Dew Point 60 °F
Humidity 44%
Rainfall 0.00 in
Snow Depth Not available.
6:19 AM 7:32 PM
Waning Crescent, 7% visible
METAR KPOU 292053Z AUTO 35009G16KT 10SM CLR 30/13 A3007 RMK AO2 SLP180 T03000133 55006

10-Day Weather Forecast

Almanac

Astronomy

Aug. 29, 2016 Rise Set
Actual Time
Civil Twilight
Nautical Twilight
Astronomical Twilight
Moon
Length of Visible Light
Length of Day
Tomorrow will be .
, % of the Moon is Illuminated

Today's Extremes

State Highs State Lows

Community

WunderPhotos

Upload Photos

1,935,690 photos uploaded!

WunderBlog® & News

Nearby

Air Quality

  Air Quality AQ Index Pollutant
Not available.

Snow Depth

Station Depth Elevation

Earthquake Activity

City Distance Mag. Time & Date
Minimum magnitude displayed is 2.5.

Coastal Water Temperatures

Place Temperature

Stations

Nearby Weather Stations

Station Location Temp. Windchill Dew Point Humidity Wind Precip. Elev Updated Type
                   

Watches & Warnings

There are currently no watches in effect.